sensor_id;sensor_type;location;lat;lon;timestamp;P1;durP1;ratioP1;P2;durP2;ratioP2
12493;SDS011;8260;51.422;6.786;2023-04-06T00:00:28;12.57;;;8.10;;
12493;SDS011;8260;51.422;6.786;2023-04-06T00:02:57;11.50;;;8.53;;
12493;SDS011;8260;51.422;6.786;2023-04-06T00:05:26;11.77;;;7.97;;
12493;SDS011;8260;51.422;6.786;2023-04-06T00:07:57;10.77;;;7.90;;
12493;SDS011;8260;51.422;6.786;2023-04-06T00:10:27;12.43;;;7.90;;
12493;SDS011;8260;51.422;6.786;2023-04-06T00:12:55;13.27;;;8.47;;
12493;SDS011;8260;51.422;6.786;2023-04-06T00:15:24;12.03;;;8.50;;
12493;SDS011;8260;51.422;6.786;2023-04-06T00:17:52;11.90;;;9.27;;
12493;SDS011;8260;51.422;6.786;2023-04-06T00:20:21;13.53;;;8.37;;
12493;SDS011;8260;51.422;6.786;2023-04-06T00:22:49;12.40;;;9.30;;
12493;SDS011;8260;51.422;6.786;2023-04-06T00:25:18;13.13;;;9.50;;
12493;SDS011;8260;51.422;6.786;2023-04-06T00:27:48;14.37;;;10.43;;
12493;SDS011;8260;51.422;6.786;2023-04-06T00:30:16;16.70;;;11.27;;
12493;SDS011;8260;51.422;6.786;2023-04-06T00:32:45;16.37;;;10.27;;
12493;SDS011;8260;51.422;6.786;2023-04-06T00:35:13;14.30;;;9.90;;
12493;SDS011;8260;51.422;6.786;2023-04-06T00:37:42;13.77;;;9.83;;
12493;SDS011;8260;51.422;6.786;2023-04-06T00:40:10;15.27;;;9.63;;
12493;SDS011;8260;51.422;6.786;2023-04-06T00:42:39;14.90;;;10.13;;
12493;SDS011;8260;51.422;6.786;2023-04-06T00:45:09;14.30;;;9.87;;
12493;SDS011;8260;51.422;6.786;2023-04-06T00:47:38;14.23;;;9.37;;
12493;SDS011;8260;51.422;6.786;2023-04-06T00:50:07;14.57;;;10.00;;
12493;SDS011;8260;51.422;6.786;2023-04-06T00:52:35;13.60;;;10.07;;
12493;SDS011;8260;51.422;6.786;2023-04-06T00:55:04;13.67;;;9.33;;
12493;SDS011;8260;51.422;6.786;2023-04-06T00:57:33;17.20;;;10.00;;
12493;SDS011;8260;51.422;6.786;2023-04-06T01:00:01;13.17;;;9.23;;
12493;SDS011;8260;51.422;6.786;2023-04-06T01:02:31;16.17;;;9.30;;
12493;SDS011;8260;51.422;6.786;2023-04-06T01:05:00;12.77;;;8.30;;
12493;SDS011;8260;51.422;6.786;2023-04-06T01:07:28;12.13;;;8.87;;
12493;SDS011;8260;51.422;6.786;2023-04-06T01:09:57;15.40;;;8.37;;
12493;SDS011;8260;51.422;6.786;2023-04-06T01:12:25;16.53;;;9.07;;
12493;SDS011;8260;51.422;6.786;2023-04-06T01:14:54;14.37;;;8.30;;
12493;SDS011;8260;51.422;6.786;2023-04-06T01:17:22;13.07;;;8.63;;
12493;SDS011;8260;51.422;6.786;2023-04-06T01:19:52;12.17;;;8.27;;
12493;SDS011;8260;51.422;6.786;2023-04-06T01:22:23;11.57;;;8.20;;
12493;SDS011;8260;51.422;6.786;2023-04-06T01:24:52;11.17;;;8.27;;
12493;SDS011;8260;51.422;6.786;2023-04-06T01:27:21;10.43;;;7.50;;
12493;SDS011;8260;51.422;6.786;2023-04-06T01:29:49;13.83;;;8.20;;
12493;SDS011;8260;51.422;6.786;2023-04-06T01:32:18;14.30;;;8.20;;
12493;SDS011;8260;51.422;6.786;2023-04-06T01:34:47;12.50;;;8.10;;
12493;SDS011;8260;51.422;6.786;2023-04-06T01:37:15;12.53;;;7.73;;
12493;SDS011;8260;51.422;6.786;2023-04-06T01:39:45;15.20;;;8.00;;
12493;SDS011;8260;51.422;6.786;2023-04-06T01:42:14;10.73;;;7.73;;
12493;SDS011;8260;51.422;6.786;2023-04-06T01:44:42;12.17;;;7.90;;
12493;SDS011;8260;51.422;6.786;2023-04-06T01:47:11;11.23;;;7.93;;
12493;SDS011;8260;51.422;6.786;2023-04-06T01:49:39;9.77;;;7.83;;
12493;SDS011;8260;51.422;6.786;2023-04-06T01:52:08;10.73;;;7.83;;
12493;SDS011;8260;51.422;6.786;2023-04-06T01:54:36;10.27;;;7.53;;
12493;SDS011;8260;51.422;6.786;2023-04-06T01:57:06;9.53;;;7.90;;
12493;SDS011;8260;51.422;6.786;2023-04-06T01:59:34;11.57;;;8.20;;
12493;SDS011;8260;51.422;6.786;2023-04-06T02:02:03;13.47;;;8.90;;
12493;SDS011;8260;51.422;6.786;2023-04-06T02:04:31;11.37;;;8.37;;
12493;SDS011;8260;51.422;6.786;2023-04-06T02:07:00;12.83;;;8.20;;
12493;SDS011;8260;51.422;6.786;2023-04-06T02:09:28;12.43;;;8.67;;
12493;SDS011;8260;51.422;6.786;2023-04-06T02:11:57;12.60;;;9.10;;
12493;SDS011;8260;51.422;6.786;2023-04-06T02:14:28;12.07;;;8.47;;
12493;SDS011;8260;51.422;6.786;2023-04-06T02:16:57;16.37;;;9.20;;
12493;SDS011;8260;51.422;6.786;2023-04-06T02:19:25;13.77;;;8.87;;
12493;SDS011;8260;51.422;6.786;2023-04-06T02:21:54;10.87;;;8.80;;
12493;SDS011;8260;51.422;6.786;2023-04-06T02:24:23;12.23;;;9.33;;
12493;SDS011;8260;51.422;6.786;2023-04-06T02:26:51;12.87;;;8.53;;
12493;SDS011;8260;51.422;6.786;2023-04-06T02:29:19;13.90;;;9.77;;
12493;SDS011;8260;51.422;6.786;2023-04-06T02:31:49;11.60;;;9.20;;
12493;SDS011;8260;51.422;6.786;2023-04-06T02:34:18;12.07;;;8.83;;
12493;SDS011;8260;51.422;6.786;2023-04-06T02:36:46;14.17;;;9.07;;
12493;SDS011;8260;51.422;6.786;2023-04-06T02:39:15;13.03;;;8.93;;
12493;SDS011;8260;51.422;6.786;2023-04-06T02:41:43;14.00;;;9.27;;
12493;SDS011;8260;51.422;6.786;2023-04-06T02:44:12;17.53;;;10.57;;
12493;SDS011;8260;51.422;6.786;2023-04-06T02:46:40;12.60;;;9.57;;
12493;SDS011;8260;51.422;6.786;2023-04-06T02:49:10;14.07;;;9.57;;
12493;SDS011;8260;51.422;6.786;2023-04-06T02:51:39;13.00;;;9.43;;
12493;SDS011;8260;51.422;6.786;2023-04-06T02:54:07;13.37;;;10.00;;
12493;SDS011;8260;51.422;6.786;2023-04-06T02:56:36;18.73;;;10.13;;
12493;SDS011;8260;51.422;6.786;2023-04-06T02:59:04;15.70;;;10.07;;
12493;SDS011;8260;51.422;6.786;2023-04-06T03:01:33;13.73;;;9.77;;
12493;SDS011;8260;51.422;6.786;2023-04-06T03:04:02;16.83;;;10.50;;
12493;SDS011;8260;51.422;6.786;2023-04-06T03:06:32;16.40;;;10.30;;
12493;SDS011;8260;51.422;6.786;2023-04-06T03:09:01;13.17;;;9.90;;
12493;SDS011;8260;51.422;6.786;2023-04-06T03:11:29;11.77;;;9.57;;
12493;SDS011;8260;51.422;6.786;2023-04-06T03:13:57;12.33;;;9.60;;
12493;SDS011;8260;51.422;6.786;2023-04-06T03:16:26;13.03;;;10.03;;
12493;SDS011;8260;51.422;6.786;2023-04-06T03:18:54;12.33;;;9.90;;
12493;SDS011;8260;51.422;6.786;2023-04-06T03:21:23;13.33;;;10.30;;
12493;SDS011;8260;51.422;6.786;2023-04-06T03:23:53;13.67;;;10.33;;
12493;SDS011;8260;51.422;6.786;2023-04-06T03:26:21;15.03;;;10.87;;
12493;SDS011;8260;51.422;6.786;2023-04-06T03:28:50;12.77;;;9.60;;
12493;SDS011;8260;51.422;6.786;2023-04-06T03:31:18;13.83;;;9.67;;
12493;SDS011;8260;51.422;6.786;2023-04-06T03:33:47;13.27;;;10.07;;
12493;SDS011;8260;51.422;6.786;2023-04-06T03:36:15;16.87;;;10.03;;
12493;SDS011;8260;51.422;6.786;2023-04-06T03:38:44;17.60;;;9.53;;
12493;SDS011;8260;51.422;6.786;2023-04-06T03:41:14;12.80;;;9.33;;
12493;SDS011;8260;51.422;6.786;2023-04-06T03:43:42;15.57;;;10.17;;
12493;SDS011;8260;51.422;6.786;2023-04-06T03:46:11;13.37;;;10.13;;
12493;SDS011;8260;51.422;6.786;2023-04-06T03:48:39;14.33;;;9.93;;
12493;SDS011;8260;51.422;6.786;2023-04-06T03:51:08;15.50;;;9.57;;
12493;SDS011;8260;51.422;6.786;2023-04-06T03:53:36;13.17;;;9.67;;
12493;SDS011;8260;51.422;6.786;2023-04-06T03:56:05;12.50;;;9.23;;
12493;SDS011;8260;51.422;6.786;2023-04-06T03:58:35;14.97;;;9.87;;
12493;SDS011;8260;51.422;6.786;2023-04-06T04:01:04;12.23;;;9.07;;
12493;SDS011;8260;51.422;6.786;2023-04-06T04:03:32;13.93;;;9.70;;
12493;SDS011;8260;51.422;6.786;2023-04-06T04:06:01;12.77;;;9.37;;
12493;SDS011;8260;51.422;6.786;2023-04-06T04:08:30;13.77;;;9.60;;
12493;SDS011;8260;51.422;6.786;2023-04-06T04:10:58;12.67;;;9.47;;
12493;SDS011;8260;51.422;6.786;2023-04-06T04:13:27;13.40;;;9.93;;
12493;SDS011;8260;51.422;6.786;2023-04-06T04:15:57;13.77;;;9.83;;
12493;SDS011;8260;51.422;6.786;2023-04-06T04:18:26;12.13;;;9.87;;
12493;SDS011;8260;51.422;6.786;2023-04-06T04:20:54;11.83;;;9.20;;
12493;SDS011;8260;51.422;6.786;2023-04-06T04:23:23;13.93;;;10.07;;
12493;SDS011;8260;51.422;6.786;2023-04-06T04:25:51;12.60;;;9.20;;
12493;SDS011;8260;51.422;6.786;2023-04-06T04:28:20;12.10;;;9.10;;
12493;SDS011;8260;51.422;6.786;2023-04-06T04:30:49;12.40;;;9.10;;
12493;SDS011;8260;51.422;6.786;2023-04-06T04:33:18;10.93;;;8.47;;
12493;SDS011;8260;51.422;6.786;2023-04-06T04:35:47;11.63;;;9.30;;
12493;SDS011;8260;51.422;6.786;2023-04-06T04:38:15;14.97;;;8.83;;
12493;SDS011;8260;51.422;6.786;2023-04-06T04:40:44;13.83;;;9.00;;
12493;SDS011;8260;51.422;6.786;2023-04-06T04:43:12;14.83;;;8.90;;
12493;SDS011;8260;51.422;6.786;2023-04-06T04:45:41;12.57;;;9.77;;
12493;SDS011;8260;51.422;6.786;2023-04-06T04:48:09;14.50;;;9.57;;
12493;SDS011;8260;51.422;6.786;2023-04-06T04:50:39;12.93;;;9.53;;
12493;SDS011;8260;51.422;6.786;2023-04-06T04:53:08;12.27;;;9.50;;
12493;SDS011;8260;51.422;6.786;2023-04-06T04:55:36;12.67;;;9.57;;
12493;SDS011;8260;51.422;6.786;2023-04-06T04:58:05;13.70;;;9.50;;
12493;SDS011;8260;51.422;6.786;2023-04-06T05:00:35;14.40;;;8.67;;
12493;SDS011;8260;51.422;6.786;2023-04-06T05:03:03;12.83;;;8.77;;
12493;SDS011;8260;51.422;6.786;2023-04-06T05:05:33;12.93;;;8.57;;
12493;SDS011;8260;51.422;6.786;2023-04-06T05:08:03;11.70;;;8.43;;
12493;SDS011;8260;51.422;6.786;2023-04-06T05:10:31;12.47;;;8.10;;
12493;SDS011;8260;51.422;6.786;2023-04-06T05:13:00;11.40;;;8.87;;
12493;SDS011;8260;51.422;6.786;2023-04-06T05:15:29;12.00;;;8.70;;
12493;SDS011;8260;51.422;6.786;2023-04-06T05:17:57;12.57;;;9.00;;
12493;SDS011;8260;51.422;6.786;2023-04-06T05:20:26;12.13;;;9.27;;
12493;SDS011;8260;51.422;6.786;2023-04-06T05:22:55;13.80;;;8.50;;
12493;SDS011;8260;51.422;6.786;2023-04-06T05:25:25;13.83;;;9.10;;
12493;SDS011;8260;51.422;6.786;2023-04-06T05:27:53;12.13;;;8.63;;
12493;SDS011;8260;51.422;6.786;2023-04-06T05:30:22;12.60;;;8.60;;
12493;SDS011;8260;51.422;6.786;2023-04-06T05:32:50;10.83;;;8.70;;
12493;SDS011;8260;51.422;6.786;2023-04-06T05:35:19;16.93;;;8.70;;
12493;SDS011;8260;51.422;6.786;2023-04-06T05:37:47;12.90;;;9.53;;
12493;SDS011;8260;51.422;6.786;2023-04-06T05:40:16;11.37;;;8.23;;
12493;SDS011;8260;51.422;6.786;2023-04-06T05:42:46;13.13;;;8.40;;
12493;SDS011;8260;51.422;6.786;2023-04-06T05:45:15;10.43;;;7.97;;
12493;SDS011;8260;51.422;6.786;2023-04-06T05:47:44;11.47;;;8.77;;
12493;SDS011;8260;51.422;6.786;2023-04-06T05:50:14;11.37;;;8.00;;
12493;SDS011;8260;51.422;6.786;2023-04-06T05:52:43;16.53;;;9.27;;
12493;SDS011;8260;51.422;6.786;2023-04-06T05:55:12;10.73;;;8.40;;
12493;SDS011;8260;51.422;6.786;2023-04-06T05:57:41;13.53;;;9.77;;
12493;SDS011;8260;51.422;6.786;2023-04-06T06:00:11;15.37;;;8.37;;
12493;SDS011;8260;51.422;6.786;2023-04-06T06:02:40;12.00;;;8.23;;
12493;SDS011;8260;51.422;6.786;2023-04-06T06:05:09;12.33;;;8.67;;
12493;SDS011;8260;51.422;6.786;2023-04-06T06:07:38;10.00;;;8.03;;
12493;SDS011;8260;51.422;6.786;2023-04-06T06:10:07;13.90;;;8.40;;
12493;SDS011;8260;51.422;6.786;2023-04-06T06:12:36;11.10;;;7.50;;
12493;SDS011;8260;51.422;6.786;2023-04-06T06:15:05;16.00;;;8.40;;
12493;SDS011;8260;51.422;6.786;2023-04-06T06:17:35;16.17;;;9.20;;
12493;SDS011;8260;51.422;6.786;2023-04-06T06:20:05;10.00;;;7.47;;
12493;SDS011;8260;51.422;6.786;2023-04-06T06:22:33;16.20;;;8.97;;
12493;SDS011;8260;51.422;6.786;2023-04-06T06:25:02;10.30;;;8.30;;
12493;SDS011;8260;51.422;6.786;2023-04-06T06:27:30;12.23;;;7.87;;
12493;SDS011;8260;51.422;6.786;2023-04-06T06:29:59;12.53;;;8.17;;
12493;SDS011;8260;51.422;6.786;2023-04-06T06:32:27;9.07;;;7.20;;
12493;SDS011;8260;51.422;6.786;2023-04-06T06:34:57;10.50;;;7.47;;
12493;SDS011;8260;51.422;6.786;2023-04-06T06:37:26;10.43;;;7.57;;
12493;SDS011;8260;51.422;6.786;2023-04-06T06:39:56;13.53;;;7.40;;
12493;SDS011;8260;51.422;6.786;2023-04-06T06:42:25;10.03;;;7.57;;
12493;SDS011;8260;51.422;6.786;2023-04-06T06:44:53;13.80;;;7.83;;
12493;SDS011;8260;51.422;6.786;2023-04-06T06:47:22;8.68;;;7.05;;
12493;SDS011;8260;51.422;6.786;2023-04-06T06:49:51;8.77;;;7.43;;
12493;SDS011;8260;51.422;6.786;2023-04-06T06:52:21;10.00;;;7.07;;
12493;SDS011;8260;51.422;6.786;2023-04-06T06:54:50;9.87;;;7.60;;
12493;SDS011;8260;51.422;6.786;2023-04-06T06:57:22;10.33;;;6.90;;
12493;SDS011;8260;51.422;6.786;2023-04-06T06:59:51;7.68;;;6.50;;
12493;SDS011;8260;51.422;6.786;2023-04-06T07:02:20;10.03;;;7.73;;
12493;SDS011;8260;51.422;6.786;2023-04-06T07:04:48;9.37;;;7.00;;
12493;SDS011;8260;51.422;6.786;2023-04-06T07:07:17;12.80;;;6.97;;
12493;SDS011;8260;51.422;6.786;2023-04-06T07:09:47;9.88;;;7.40;;
12493;SDS011;8260;51.422;6.786;2023-04-06T07:12:16;9.68;;;7.35;;
12493;SDS011;8260;51.422;6.786;2023-04-06T07:14:44;14.13;;;7.78;;
12493;SDS011;8260;51.422;6.786;2023-04-06T07:17:13;9.30;;;7.47;;
12493;SDS011;8260;51.422;6.786;2023-04-06T07:19:41;8.57;;;6.70;;
12493;SDS011;8260;51.422;6.786;2023-04-06T07:22:10;10.65;;;7.35;;
12493;SDS011;8260;51.422;6.786;2023-04-06T07:24:38;10.60;;;7.38;;
12493;SDS011;8260;51.422;6.786;2023-04-06T07:27:08;9.65;;;7.88;;
12493;SDS011;8260;51.422;6.786;2023-04-06T07:29:37;9.57;;;6.97;;
12493;SDS011;8260;51.422;6.786;2023-04-06T07:32:06;9.98;;;7.35;;
12493;SDS011;8260;51.422;6.786;2023-04-06T07:34:34;12.18;;;7.32;;
12493;SDS011;8260;51.422;6.786;2023-04-06T07:37:03;10.60;;;7.57;;
12493;SDS011;8260;51.422;6.786;2023-04-06T07:39:31;9.27;;;7.55;;
12493;SDS011;8260;51.422;6.786;2023-04-06T07:41:59;10.48;;;8.13;;
12493;SDS011;8260;51.422;6.786;2023-04-06T07:44:29;11.95;;;8.40;;
12493;SDS011;8260;51.422;6.786;2023-04-06T07:46:58;10.27;;;7.25;;
12493;SDS011;8260;51.422;6.786;2023-04-06T07:49:26;11.65;;;7.60;;
12493;SDS011;8260;51.422;6.786;2023-04-06T07:51:55;11.55;;;8.38;;
12493;SDS011;8260;51.422;6.786;2023-04-06T07:54:24;9.05;;;7.63;;
12493;SDS011;8260;51.422;6.786;2023-04-06T07:56:52;12.60;;;8.30;;
12493;SDS011;8260;51.422;6.786;2023-04-06T07:59:21;11.25;;;7.93;;
12493;SDS011;8260;51.422;6.786;2023-04-06T08:01:51;10.45;;;7.85;;
12493;SDS011;8260;51.422;6.786;2023-04-06T08:04:19;10.40;;;8.05;;
12493;SDS011;8260;51.422;6.786;2023-04-06T08:06:48;13.10;;;7.78;;
12493;SDS011;8260;51.422;6.786;2023-04-06T08:09:17;10.88;;;7.88;;
12493;SDS011;8260;51.422;6.786;2023-04-06T08:11:45;12.05;;;8.07;;
12493;SDS011;8260;51.422;6.786;2023-04-06T08:14:14;13.13;;;8.23;;
12493;SDS011;8260;51.422;6.786;2023-04-06T08:16:43;8.82;;;7.65;;
12493;SDS011;8260;51.422;6.786;2023-04-06T08:19:13;11.00;;;7.57;;
12493;SDS011;8260;51.422;6.786;2023-04-06T08:21:43;12.68;;;8.88;;
12493;SDS011;8260;51.422;6.786;2023-04-06T08:24:12;14.60;;;7.72;;
12493;SDS011;8260;51.422;6.786;2023-04-06T08:26:41;12.10;;;8.32;;
12493;SDS011;8260;51.422;6.786;2023-04-06T08:29:09;10.95;;;8.38;;
12493;SDS011;8260;51.422;6.786;2023-04-06T08:31:38;12.85;;;9.38;;
12493;SDS011;8260;51.422;6.786;2023-04-06T08:34:07;11.27;;;8.68;;
12493;SDS011;8260;51.422;6.786;2023-04-06T08:36:40;14.02;;;9.73;;
12493;SDS011;8260;51.422;6.786;2023-04-06T08:39:09;9.30;;;8.10;;
12493;SDS011;8260;51.422;6.786;2023-04-06T08:41:37;11.65;;;8.77;;
12493;SDS011;8260;51.422;6.786;2023-04-06T08:44:06;12.05;;;8.80;;
12493;SDS011;8260;51.422;6.786;2023-04-06T08:46:34;10.82;;;8.52;;
12493;SDS011;8260;51.422;6.786;2023-04-06T08:49:03;11.38;;;9.25;;
12493;SDS011;8260;51.422;6.786;2023-04-06T08:51:34;16.75;;;9.20;;
12493;SDS011;8260;51.422;6.786;2023-04-06T08:54:05;13.45;;;8.30;;
12493;SDS011;8260;51.422;6.786;2023-04-06T08:56:36;14.05;;;9.85;;
12493;SDS011;8260;51.422;6.786;2023-04-06T08:59:05;11.90;;;8.60;;
12493;SDS011;8260;51.422;6.786;2023-04-06T09:01:36;12.27;;;8.98;;
12493;SDS011;8260;51.422;6.786;2023-04-06T09:04:07;14.55;;;9.30;;
12493;SDS011;8260;51.422;6.786;2023-04-06T09:06:38;14.65;;;9.65;;
12493;SDS011;8260;51.422;6.786;2023-04-06T09:09:08;14.98;;;9.65;;
12493;SDS011;8260;51.422;6.786;2023-04-06T09:11:42;13.27;;;9.15;;
12493;SDS011;8260;51.422;6.786;2023-04-06T09:14:10;12.35;;;9.18;;
12493;SDS011;8260;51.422;6.786;2023-04-06T09:16:39;14.90;;;9.70;;
12493;SDS011;8260;51.422;6.786;2023-04-06T09:19:08;13.57;;;9.32;;
12493;SDS011;8260;51.422;6.786;2023-04-06T09:21:37;12.48;;;9.43;;
12493;SDS011;8260;51.422;6.786;2023-04-06T09:24:06;11.07;;;9.55;;
12493;SDS011;8260;51.422;6.786;2023-04-06T09:26:47;10.50;;;8.63;;
12493;SDS011;8260;51.422;6.786;2023-04-06T09:29:22;12.45;;;10.13;;
12493;SDS011;8260;51.422;6.786;2023-04-06T09:32:01;14.55;;;10.38;;
12493;SDS011;8260;51.422;6.786;2023-04-06T09:34:30;14.25;;;9.80;;
12493;SDS011;8260;51.422;6.786;2023-04-06T09:36:58;12.10;;;9.73;;
12493;SDS011;8260;51.422;6.786;2023-04-06T09:39:27;15.45;;;9.88;;
12493;SDS011;8260;51.422;6.786;2023-04-06T09:41:57;13.52;;;10.25;;
12493;SDS011;8260;51.422;6.786;2023-04-06T09:44:27;14.43;;;10.35;;
12493;SDS011;8260;51.422;6.786;2023-04-06T09:46:55;14.52;;;9.65;;
12493;SDS011;8260;51.422;6.786;2023-04-06T09:49:27;14.40;;;10.20;;
12493;SDS011;8260;51.422;6.786;2023-04-06T09:51:57;13.68;;;9.68;;
12493;SDS011;8260;51.422;6.786;2023-04-06T09:54:28;14.18;;;10.10;;
12493;SDS011;8260;51.422;6.786;2023-04-06T09:57:01;15.93;;;9.93;;
12493;SDS011;8260;51.422;6.786;2023-04-06T09:59:40;12.73;;;10.05;;
12493;SDS011;8260;51.422;6.786;2023-04-06T10:04:56;15.27;;;10.80;;
12493;SDS011;8260;51.422;6.786;2023-04-06T10:07:27;14.65;;;10.73;;
12493;SDS011;8260;51.422;6.786;2023-04-06T10:09:55;14.73;;;11.32;;
12493;SDS011;8260;51.422;6.786;2023-04-06T10:12:25;15.57;;;10.52;;
12493;SDS011;8260;51.422;6.786;2023-04-06T10:14:54;15.93;;;11.30;;
12493;SDS011;8260;51.422;6.786;2023-04-06T10:17:23;15.27;;;11.40;;
12493;SDS011;8260;51.422;6.786;2023-04-06T10:19:52;16.02;;;11.20;;
12493;SDS011;8260;51.422;6.786;2023-04-06T10:22:23;18.08;;;10.80;;
12493;SDS011;8260;51.422;6.786;2023-04-06T10:24:52;17.25;;;11.73;;
12493;SDS011;8260;51.422;6.786;2023-04-06T10:27:29;17.20;;;11.20;;
12493;SDS011;8260;51.422;6.786;2023-04-06T10:30:00;14.35;;;10.60;;
12493;SDS011;8260;51.422;6.786;2023-04-06T10:32:36;16.58;;;11.23;;
12493;SDS011;8260;51.422;6.786;2023-04-06T10:35:05;15.55;;;12.00;;
12493;SDS011;8260;51.422;6.786;2023-04-06T10:37:45;16.80;;;11.88;;
12493;SDS011;8260;51.422;6.786;2023-04-06T10:40:18;16.77;;;10.90;;
12493;SDS011;8260;51.422;6.786;2023-04-06T10:42:48;16.73;;;10.70;;
12493;SDS011;8260;51.422;6.786;2023-04-06T10:45:20;16.58;;;11.68;;
12493;SDS011;8260;51.422;6.786;2023-04-06T10:47:49;18.25;;;12.52;;
12493;SDS011;8260;51.422;6.786;2023-04-06T10:50:17;17.20;;;11.02;;
12493;SDS011;8260;51.422;6.786;2023-04-06T10:52:46;21.23;;;10.68;;
12493;SDS011;8260;51.422;6.786;2023-04-06T10:55:15;16.63;;;11.20;;
12493;SDS011;8260;51.422;6.786;2023-04-06T10:57:46;15.52;;;10.35;;
12493;SDS011;8260;51.422;6.786;2023-04-06T11:00:16;14.70;;;10.35;;
12493;SDS011;8260;51.422;6.786;2023-04-06T11:02:45;16.58;;;11.60;;
12493;SDS011;8260;51.422;6.786;2023-04-06T11:05:14;16.55;;;11.48;;
12493;SDS011;8260;51.422;6.786;2023-04-06T11:07:43;15.95;;;11.45;;
12493;SDS011;8260;51.422;6.786;2023-04-06T11:10:20;17.23;;;11.60;;
12493;SDS011;8260;51.422;6.786;2023-04-06T11:12:52;17.77;;;12.00;;
12493;SDS011;8260;51.422;6.786;2023-04-06T11:15:22;19.70;;;12.00;;
12493;SDS011;8260;51.422;6.786;2023-04-06T11:17:51;18.30;;;12.90;;
12493;SDS011;8260;51.422;6.786;2023-04-06T11:22:48;22.55;;;13.13;;
12493;SDS011;8260;51.422;6.786;2023-04-06T11:25:17;18.85;;;12.82;;
12493;SDS011;8260;51.422;6.786;2023-04-06T11:27:46;18.15;;;12.27;;
12493;SDS011;8260;51.422;6.786;2023-04-06T11:30:14;20.50;;;13.45;;
12493;SDS011;8260;51.422;6.786;2023-04-06T11:32:43;18.90;;;13.77;;
12493;SDS011;8260;51.422;6.786;2023-04-06T11:35:19;18.40;;;12.75;;
12493;SDS011;8260;51.422;6.786;2023-04-06T11:37:49;19.52;;;12.40;;
12493;SDS011;8260;51.422;6.786;2023-04-06T11:40:20;19.00;;;12.82;;
12493;SDS011;8260;51.422;6.786;2023-04-06T11:42:54;18.90;;;12.60;;
12493;SDS011;8260;51.422;6.786;2023-04-06T11:45:23;19.27;;;13.00;;
12493;SDS011;8260;51.422;6.786;2023-04-06T11:47:57;21.45;;;12.65;;
12493;SDS011;8260;51.422;6.786;2023-04-06T11:50:31;20.33;;;12.90;;
12493;SDS011;8260;51.422;6.786;2023-04-06T11:53:02;18.40;;;12.88;;
12493;SDS011;8260;51.422;6.786;2023-04-06T11:55:36;16.63;;;12.80;;
12493;SDS011;8260;51.422;6.786;2023-04-06T11:58:05;20.85;;;13.48;;
12493;SDS011;8260;51.422;6.786;2023-04-06T12:00:34;23.45;;;13.60;;
12493;SDS011;8260;51.422;6.786;2023-04-06T12:03:03;19.83;;;14.02;;
12493;SDS011;8260;51.422;6.786;2023-04-06T12:05:32;22.42;;;12.50;;
12493;SDS011;8260;51.422;6.786;2023-04-06T12:08:02;19.08;;;13.25;;
12493;SDS011;8260;51.422;6.786;2023-04-06T12:10:31;19.13;;;13.00;;
12493;SDS011;8260;51.422;6.786;2023-04-06T12:12:59;16.70;;;12.25;;
12493;SDS011;8260;51.422;6.786;2023-04-06T12:15:28;18.55;;;12.57;;
12493;SDS011;8260;51.422;6.786;2023-04-06T12:17:56;20.80;;;13.18;;
12493;SDS011;8260;51.422;6.786;2023-04-06T12:20:25;19.52;;;12.18;;
12493;SDS011;8260;51.422;6.786;2023-04-06T12:22:54;16.38;;;12.23;;
12493;SDS011;8260;51.422;6.786;2023-04-06T12:25:24;17.73;;;12.38;;
12493;SDS011;8260;51.422;6.786;2023-04-06T12:27:52;16.40;;;11.98;;
12493;SDS011;8260;51.422;6.786;2023-04-06T12:30:21;17.80;;;11.68;;
12493;SDS011;8260;51.422;6.786;2023-04-06T12:32:49;20.80;;;12.75;;
12493;SDS011;8260;51.422;6.786;2023-04-06T12:35:18;18.15;;;11.43;;
12493;SDS011;8260;51.422;6.786;2023-04-06T12:37:47;17.30;;;11.85;;
12493;SDS011;8260;51.422;6.786;2023-04-06T12:40:16;16.10;;;12.82;;
12493;SDS011;8260;51.422;6.786;2023-04-06T12:42:45;16.95;;;12.38;;
12493;SDS011;8260;51.422;6.786;2023-04-06T12:45:14;19.50;;;13.40;;
12493;SDS011;8260;51.422;6.786;2023-04-06T12:47:44;16.25;;;12.25;;
12493;SDS011;8260;51.422;6.786;2023-04-06T12:50:12;20.02;;;12.13;;
12493;SDS011;8260;51.422;6.786;2023-04-06T12:52:41;20.17;;;12.82;;
12493;SDS011;8260;51.422;6.786;2023-04-06T12:55:09;17.70;;;11.95;;
12493;SDS011;8260;51.422;6.786;2023-04-06T12:57:38;16.58;;;11.80;;
12493;SDS011;8260;51.422;6.786;2023-04-06T13:00:08;14.70;;;11.45;;
12493;SDS011;8260;51.422;6.786;2023-04-06T13:02:38;14.85;;;10.77;;
12493;SDS011;8260;51.422;6.786;2023-04-06T13:05:06;16.23;;;11.13;;
12493;SDS011;8260;51.422;6.786;2023-04-06T13:07:35;13.38;;;9.68;;
12493;SDS011;8260;51.422;6.786;2023-04-06T13:10:04;13.18;;;8.85;;
12493;SDS011;8260;51.422;6.786;2023-04-06T13:12:32;12.52;;;9.27;;
12493;SDS011;8260;51.422;6.786;2023-04-06T13:15:01;12.95;;;8.57;;
12493;SDS011;8260;51.422;6.786;2023-04-06T13:17:31;12.70;;;8.48;;
12493;SDS011;8260;51.422;6.786;2023-04-06T13:20:00;10.70;;;8.32;;
12493;SDS011;8260;51.422;6.786;2023-04-06T13:22:29;14.23;;;8.40;;
12493;SDS011;8260;51.422;6.786;2023-04-06T13:24:58;10.43;;;7.15;;
12493;SDS011;8260;51.422;6.786;2023-04-06T13:27:27;11.93;;;7.18;;
12493;SDS011;8260;51.422;6.786;2023-04-06T13:29:55;9.63;;;6.70;;
12493;SDS011;8260;51.422;6.786;2023-04-06T13:32:24;8.63;;;6.60;;
12493;SDS011;8260;51.422;6.786;2023-04-06T13:34:55;10.07;;;6.55;;
12493;SDS011;8260;51.422;6.786;2023-04-06T13:37:23;9.38;;;7.30;;
12493;SDS011;8260;51.422;6.786;2023-04-06T13:39:52;10.07;;;7.10;;
12493;SDS011;8260;51.422;6.786;2023-04-06T13:42:20;9.55;;;6.65;;
12493;SDS011;8260;51.422;6.786;2023-04-06T13:44:49;10.48;;;7.40;;
12493;SDS011;8260;51.422;6.786;2023-04-06T13:47:17;11.68;;;7.85;;
12493;SDS011;8260;51.422;6.786;2023-04-06T13:49:47;11.60;;;7.63;;
12493;SDS011;8260;51.422;6.786;2023-04-06T13:52:17;11.10;;;7.97;;
12493;SDS011;8260;51.422;6.786;2023-04-06T13:54:46;11.45;;;8.40;;
12493;SDS011;8260;51.422;6.786;2023-04-06T13:57:14;12.50;;;8.68;;
12493;SDS011;8260;51.422;6.786;2023-04-06T13:59:43;13.00;;;8.93;;
12493;SDS011;8260;51.422;6.786;2023-04-06T14:02:12;10.45;;;8.88;;
12493;SDS011;8260;51.422;6.786;2023-04-06T14:04:41;9.98;;;8.32;;
12493;SDS011;8260;51.422;6.786;2023-04-06T14:07:09;11.93;;;8.93;;
12493;SDS011;8260;51.422;6.786;2023-04-06T14:09:39;11.30;;;8.13;;
12493;SDS011;8260;51.422;6.786;2023-04-06T14:12:07;11.18;;;8.77;;
12493;SDS011;8260;51.422;6.786;2023-04-06T14:14:36;11.05;;;8.15;;
12493;SDS011;8260;51.422;6.786;2023-04-06T14:17:04;12.43;;;8.73;;
12493;SDS011;8260;51.422;6.786;2023-04-06T14:19:33;13.35;;;8.90;;
12493;SDS011;8260;51.422;6.786;2023-04-06T14:22:02;11.75;;;8.77;;
12493;SDS011;8260;51.422;6.786;2023-04-06T14:24:31;11.45;;;8.32;;
12493;SDS011;8260;51.422;6.786;2023-04-06T14:27:01;9.68;;;7.70;;
12493;SDS011;8260;51.422;6.786;2023-04-06T14:29:30;14.13;;;7.97;;
12493;SDS011;8260;51.422;6.786;2023-04-06T14:31:58;12.18;;;7.78;;
12493;SDS011;8260;51.422;6.786;2023-04-06T14:34:27;11.13;;;7.25;;
12493;SDS011;8260;51.422;6.786;2023-04-06T14:36:55;12.43;;;8.07;;
12493;SDS011;8260;51.422;6.786;2023-04-06T14:39:25;10.48;;;7.55;;
12493;SDS011;8260;51.422;6.786;2023-04-06T14:41:53;10.18;;;7.28;;
12493;SDS011;8260;51.422;6.786;2023-04-06T14:44:23;11.30;;;7.88;;
12493;SDS011;8260;51.422;6.786;2023-04-06T14:46:52;11.40;;;8.35;;
12493;SDS011;8260;51.422;6.786;2023-04-06T14:49:20;9.63;;;8.27;;
12493;SDS011;8260;51.422;6.786;2023-04-06T14:51:49;10.30;;;8.43;;
12493;SDS011;8260;51.422;6.786;2023-04-06T14:54:17;11.45;;;9.43;;
12493;SDS011;8260;51.422;6.786;2023-04-06T14:56:46;10.25;;;8.27;;
12493;SDS011;8260;51.422;6.786;2023-04-06T14:59:14;10.07;;;8.27;;
12493;SDS011;8260;51.422;6.786;2023-04-06T15:01:44;11.48;;;9.15;;